Time;durP1;ratioP1;P1;durP2;ratioP2;P2;SDS_P1;SDS_P2;PMS_P1;PMS_P2;Temp;Humidity;BMP_temperature;BMP_pressure;BME280_temperature;BME280_humidity;BME280_pressure;Samples;Min_cycle;Max_cycle;Signal;HPM_P1;HPM_P2
2023/11/12 00:00:04;;;;;;;108.72;19.77;;;;;;;;;;6174376;23;20021;-59
2023/11/12 00:02:57;;;;;;;90.53;19.30;;;;;;;;;;6173020;23;20299;-61
2023/11/12 00:05:44;;;;;;;144.38;22.10;;;;;;;;;;6167523;23;20021;-60
2023/11/12 00:08:37;;;;;;;84.22;19.75;;;;;;;;;;6172466;23;20025;-61
2023/11/12 00:11:25;;;;;;;72.40;18.75;;;;;;;;;;6174161;23;20086;-60
2023/11/12 00:14:25;;;;;;;76.18;20.08;;;;;;;;;;6145611;23;20032;-63
2023/11/12 00:17:16;;;;;;;82.53;20.33;;;;;;;;;;6143972;23;20092;-63
2023/11/12 00:19:50;;;;;;;71.63;19.50;;;;;;;;;;6146033;23;20033;-63
2023/11/12 00:22:37;;;;;;;57.33;16.98;;;;;;;;;;6145739;23;20037;-63
2023/11/12 00:25:30;;;;;;;55.83;17.30;;;;;;;;;;6145389;23;20025;-63
2023/11/12 00:28:17;;;;;;;58.15;18.08;;;;;;;;;;6144712;23;20080;-62
2023/11/12 00:31:11;;;;;;;60.60;19.20;;;;;;;;;;6144666;23;20025;-61
2023/11/12 00:33:59;;;;;;;65.13;19.40;;;;;;;;;;6143392;23;20658;-59
2023/11/12 00:36:52;;;;;;;41.15;16.48;;;;;;;;;;6142002;23;20519;-52
2023/11/12 00:39:40;;;;;;;48.63;17.33;;;;;;;;;;6143268;23;20676;-53
2023/11/12 00:42:33;;;;;;;56.50;17.75;;;;;;;;;;6140708;23;20030;-54
2023/11/12 00:45:20;;;;;;;47.35;17.77;;;;;;;;;;6141802;23;20072;-53
2023/11/12 00:48:16;;;;;;;67.95;19.52;;;;;;;;;;6141981;23;20393;-53
2023/11/12 00:51:02;;;;;;;44.70;17.17;;;;;;;;;;6142105;23;20021;-59
2023/11/12 00:53:55;;;;;;;58.35;19.80;;;;;;;;;;6142281;23;20026;-59
2023/11/12 00:56:49;;;;;;;57.22;18.90;;;;;;;;;;6141893;23;20088;-59
2023/11/12 00:59:16;;;;;;;48.55;17.48;;;;;;;;;;6108682;23;20044;-59
2023/11/12 01:01:44;;;;;;;45.05;17.52;;;;;;;;;;6141289;23;20032;-59
2023/11/12 01:04:37;;;;;;;60.25;19.15;;;;;;;;;;6142484;23;20828;-59
2023/11/12 01:07:25;;;;;;;49.22;19.30;;;;;;;;;;6143465;23;20026;-59
2023/11/12 01:10:18;;;;;;;54.40;18.90;;;;;;;;;;6142604;23;20021;-54
2023/11/12 01:13:12;;;;;;;54.55;19.02;;;;;;;;;;6164049;23;20460;-59
2023/11/12 01:16:06;;;;;;;49.30;18.15;;;;;;;;;;6175393;23;20052;-60
2023/11/12 01:18:54;;;;;;;58.40;18.85;;;;;;;;;;6174086;23;20021;-59
2023/11/12 01:21:47;;;;;;;53.33;18.35;;;;;;;;;;6173827;23;20382;-59
2023/11/12 01:24:35;;;;;;;49.10;18.60;;;;;;;;;;6171231;23;20035;-60
2023/11/12 01:27:28;;;;;;;66.55;19.67;;;;;;;;;;6174048;23;20107;-61
2023/11/12 01:30:17;;;;;;;57.08;18.75;;;;;;;;;;6166541;23;20021;-64
2023/11/12 01:33:10;;;;;;;58.50;19.95;;;;;;;;;;6168468;23;20052;-63
2023/11/12 01:35:57;;;;;;;56.88;19.58;;;;;;;;;;6170014;23;20025;-63
2023/11/12 01:38:31;;;;;;;66.88;19.20;;;;;;;;;;6173580;23;20096;-63
2023/11/12 01:41:25;;;;;;;61.67;19.40;;;;;;;;;;6173911;23;20617;-63
2023/11/12 01:44:18;;;;;;;48.30;18.73;;;;;;;;;;6174409;23;20029;-63
2023/11/12 01:47:14;;;;;;;46.28;19.27;;;;;;;;;;6172631;23;20033;-61
2023/11/12 01:49:41;;;;;;;55.63;18.65;;;;;;;;;;6172494;23;20083;-59
2023/11/12 01:52:09;;;;;;;57.90;20.58;;;;;;;;;;6174067;23;20021;-59
2023/11/12 01:54:44;;;;;;;41.78;18.55;;;;;;;;;;6173815;23;20451;-59
2023/11/12 01:57:33;;;;;;;44.63;18.52;;;;;;;;;;6173251;23;20033;-59
2023/11/12 02:00:25;;;;;;;57.67;19.00;;;;;;;;;;6171413;23;20025;-59
2023/11/12 02:03:15;;;;;;;47.35;17.80;;;;;;;;;;6173926;23;20025;-59
2023/11/12 02:06:12;;;;;;;44.70;19.15;;;;;;;;;;6177056;23;20095;-59
2023/11/12 02:08:58;;;;;;;42.40;17.77;;;;;;;;;;6173489;23;20039;-52
2023/11/12 02:11:54;;;;;;;49.47;18.25;;;;;;;;;;6175646;23;20017;-53
2023/11/12 02:14:55;;;;;;;55.65;18.60;;;;;;;;;;6175906;23;20518;-50
2023/11/12 02:17:48;;;;;;;38.40;16.80;;;;;;;;;;6173116;23;20025;-50
2023/11/12 02:20:43;;;;;;;60.67;19.98;;;;;;;;;;6175568;23;20096;-53
2023/11/12 02:23:37;;;;;;;48.22;18.60;;;;;;;;;;6174730;23;20619;-62
2023/11/12 02:26:24;;;;;;;56.05;19.70;;;;;;;;;;6175633;23;20028;-61
2023/11/12 02:29:19;;;;;;;55.13;19.20;;;;;;;;;;6174472;23;20021;-59
2023/11/12 02:32:06;;;;;;;54.25;18.95;;;;;;;;;;6176226;23;20369;-59
2023/11/12 02:35:00;;;;;;;55.58;19.40;;;;;;;;;;6175823;23;20033;-58
2023/11/12 02:37:47;;;;;;;44.83;17.77;;;;;;;;;;6172221;23;20025;-58
2023/11/12 02:40:40;;;;;;;59.17;19.77;;;;;;;;;;6172971;23;20060;-54
2023/11/12 02:43:28;;;;;;;54.42;18.83;;;;;;;;;;6175366;23;20025;-50
2023/11/12 02:46:22;;;;;;;46.05;17.27;;;;;;;;;;6175534;23;20029;-51
2023/11/12 02:49:28;;;;;;;49.92;17.58;;;;;;;;;;6175195;23;20028;-54
2023/11/12 02:52:21;;;;;;;42.88;16.73;;;;;;;;;;6175280;23;20025;-52
2023/11/12 02:55:16;;;;;;;47.58;17.23;;;;;;;;;;6174538;23;20545;-50
2023/11/12 02:58:10;;;;;;;45.47;16.83;;;;;;;;;;6172280;23;20033;-50
2023/11/12 03:00:56;;;;;;;50.42;17.55;;;;;;;;;;6172044;23;20024;-61
2023/11/12 03:03:51;;;;;;;49.38;17.02;;;;;;;;;;6174850;23;20029;-62
2023/11/12 03:06:38;;;;;;;41.55;16.98;;;;;;;;;;6172880;23;20057;-61
2023/11/12 03:09:31;;;;;;;41.00;16.77;;;;;;;;;;6175666;23;20017;-63
2023/11/12 03:12:32;;;;;;;45.30;17.42;;;;;;;;;;6174075;23;20092;-61
2023/11/12 03:15:26;;;;;;;42.58;17.17;;;;;;;;;;6155891;23;20091;-62
2023/11/12 03:18:13;;;;;;;42.30;17.17;;;;;;;;;;6175109;23;20079;-49
2023/11/12 03:21:10;;;;;;;42.67;17.17;;;;;;;;;;6174810;23;20020;-54
2023/11/12 03:23:57;;;;;;;48.78;18.10;;;;;;;;;;6174327;23;20025;-54
2023/11/12 03:26:52;;;;;;;41.80;16.77;;;;;;;;;;6175021;23;20021;-53
2023/11/12 03:29:38;;;;;;;50.67;18.38;;;;;;;;;;6170754;23;20032;-53
2023/11/12 03:32:31;;;;;;;51.22;18.00;;;;;;;;;;6172719;23;20025;-50
2023/11/12 03:35:20;;;;;;;48.60;17.35;;;;;;;;;;6171557;23;20052;-64
2023/11/12 03:38:13;;;;;;;57.53;18.77;;;;;;;;;;6172708;23;20024;-59
2023/11/12 03:41:00;;;;;;;50.92;16.35;;;;;;;;;;6171387;23;20028;-53
2023/11/12 03:43:54;;;;;;;49.33;18.02;;;;;;;;;;6172366;23;20035;-51
2023/11/12 03:46:42;;;;;;;56.42;17.85;;;;;;;;;;6171194;23;20100;-54
2023/11/12 03:49:35;;;;;;;55.05;18.30;;;;;;;;;;6174517;23;20029;-49
2023/11/12 03:52:23;;;;;;;37.95;15.05;;;;;;;;;;6169831;23;20025;-53
2023/11/12 03:55:23;;;;;;;56.20;18.00;;;;;;;;;;6175143;23;20083;-59
2023/11/12 03:58:10;;;;;;;42.33;16.10;;;;;;;;;;6174843;23;20029;-53
2023/11/12 04:01:04;;;;;;;58.05;17.85;;;;;;;;;;6173960;23;20033;-53
2023/11/12 04:03:52;;;;;;;42.97;16.25;;;;;;;;;;6174118;23;20542;-50
2023/11/12 04:06:46;;;;;;;46.58;16.23;;;;;;;;;;6176308;23;20024;-54
2023/11/12 04:09:33;;;;;;;43.40;15.73;;;;;;;;;;6175580;23;20475;-53
2023/11/12 04:12:33;;;;;;;37.72;14.98;;;;;;;;;;6176265;23;20021;-58
2023/11/12 04:15:27;;;;;;;45.40;15.00;;;;;;;;;;6176541;23;20084;-59
2023/11/12 04:18:20;;;;;;;36.03;13.48;;;;;;;;;;6175896;23;20021;-59
2023/11/12 04:21:14;;;;;;;35.40;14.73;;;;;;;;;;6172828;23;20036;-59
2023/11/12 04:24:08;;;;;;;42.25;15.93;;;;;;;;;;6175961;23;20025;-53
2023/11/12 04:26:56;;;;;;;44.03;16.38;;;;;;;;;;6175816;23;20028;-58
2023/11/12 04:29:50;;;;;;;39.00;15.10;;;;;;;;;;6171972;23;20023;-58
2023/11/12 04:32:51;;;;;;;43.03;15.30;;;;;;;;;;6176183;23;20024;-59
2023/11/12 04:35:52;;;;;;;41.65;15.38;;;;;;;;;;6174506;23;20032;-59
2023/11/12 04:38:39;;;;;;;53.03;16.08;;;;;;;;;;6173588;23;20025;-59
2023/11/12 04:41:33;;;;;;;44.25;15.75;;;;;;;;;;6173422;23;20024;-63
2023/11/12 04:44:21;;;;;;;45.80;17.30;;;;;;;;;;6175973;23;20462;-62
2023/11/12 04:47:14;;;;;;;47.58;16.33;;;;;;;;;;6176780;23;20033;-62
2023/11/12 04:50:02;;;;;;;38.70;14.70;;;;;;;;;;6173011;23;20053;-62
2023/11/12 04:52:55;;;;;;;42.22;16.30;;;;;;;;;;6176038;23;20092;-62
2023/11/12 04:55:49;;;;;;;47.15;16.60;;;;;;;;;;6174501;23;20025;-61
2023/11/12 04:58:50;;;;;;;61.15;18.85;;;;;;;;;;6174242;23;20025;-59
2023/11/12 05:01:44;;;;;;;60.20;17.90;;;;;;;;;;6172534;23;20029;-59
2023/11/12 05:04:31;;;;;;;58.42;17.88;;;;;;;;;;6174048;23;20059;-62
2023/11/12 05:07:25;;;;;;;48.65;16.00;;;;;;;;;;6175614;23;20021;-63
2023/11/12 05:10:13;;;;;;;59.17;17.77;;;;;;;;;;6173912;23;20029;-62
2023/11/12 05:13:12;;;;;;;81.95;17.88;;;;;;;;;;6173977;23;20416;-62
2023/11/12 05:16:13;;;;;;;80.43;18.00;;;;;;;;;;6177549;23;20025;-63
2023/11/12 05:19:07;;;;;;;86.20;18.55;;;;;;;;;;6175638;23;20072;-64
2023/11/12 05:21:55;;;;;;;108.93;20.17;;;;;;;;;;6170929;23;20334;-59
2023/11/12 05:24:51;;;;;;;118.97;20.13;;;;;;;;;;6176251;23;20025;-59
2023/11/12 05:27:44;;;;;;;90.25;19.10;;;;;;;;;;6174474;23;20059;-60
2023/11/12 05:30:30;;;;;;;87.53;18.92;;;;;;;;;;6176232;23;20021;-59
2023/11/12 05:33:24;;;;;;;78.38;18.50;;;;;;;;;;6175807;23;20020;-59
2023/11/12 05:36:11;;;;;;;80.95;18.45;;;;;;;;;;6174169;23;20463;-61
2023/11/12 05:39:05;;;;;;;72.00;18.52;;;;;;;;;;6175409;23;20108;-55
2023/11/12 05:41:52;;;;;;;60.58;16.30;;;;;;;;;;6176098;23;20021;-52
2023/11/12 05:44:45;;;;;;;59.17;17.67;;;;;;;;;;6175737;23;20028;-52
2023/11/12 05:47:33;;;;;;;63.30;16.95;;;;;;;;;;6174364;23;20839;-53
2023/11/12 05:50:26;;;;;;;45.10;15.90;;;;;;;;;;6165833;23;20021;-52
2023/11/12 05:53:13;;;;;;;53.30;16.98;;;;;;;;;;6173059;23;20051;-55
2023/11/12 05:56:08;;;;;;;49.17;16.17;;;;;;;;;;6174384;23;20025;-59
2023/11/12 05:58:55;;;;;;;40.45;15.45;;;;;;;;;;6172874;23;20017;-61
2023/11/12 06:01:48;;;;;;;46.85;16.30;;;;;;;;;;6169291;23;20021;-61
2023/11/12 06:04:42;;;;;;;49.40;17.02;;;;;;;;;;6174228;23;20025;-62
2023/11/12 06:07:36;;;;;;;48.92;17.23;;;;;;;;;;6173955;23;20041;-62
2023/11/12 06:10:24;;;;;;;48.30;17.88;;;;;;;;;;6170361;23;20025;-62
2023/11/12 06:13:24;;;;;;;50.97;17.70;;;;;;;;;;6174894;23;20021;-50
2023/11/12 06:16:19;;;;;;;60.72;18.10;;;;;;;;;;6175410;23;20028;-61
2023/11/12 06:19:12;;;;;;;62.00;18.40;;;;;;;;;;6173573;23;20025;-60
2023/11/12 06:22:01;;;;;;;58.35;17.77;;;;;;;;;;6175167;23;20021;-60
2023/11/12 06:24:52;;;;;;;62.22;17.73;;;;;;;;;;6173970;23;20360;-59
2023/11/12 06:27:47;;;;;;;62.95;18.20;;;;;;;;;;6172447;23;20387;-60
2023/11/12 06:30:40;;;;;;;56.47;17.55;;;;;;;;;;6172164;23;20029;-62
2023/11/12 06:33:27;;;;;;;63.38;18.45;;;;;;;;;;6173149;23;20017;-54
2023/11/12 06:36:22;;;;;;;66.38;17.23;;;;;;;;;;6174641;23;20065;-59
2023/11/12 06:39:15;;;;;;;85.90;19.85;;;;;;;;;;6172210;23;20021;-60
2023/11/12 06:42:09;;;;;;;;;;;;;;;;;;6172279;23;20024;-59
2023/11/12 06:44:55;;;;;;;78.13;18.15;;;;;;;;;;6172187;23;19924;-59
2023/11/12 06:47:50;;;;;;;63.08;17.02;;;;;;;;;;6172465;23;20016;-60
2023/11/12 06:50:37;;;;;;;70.97;18.80;;;;;;;;;;6173444;23;20025;-62
2023/11/12 06:53:30;;;;;;;73.43;18.23;;;;;;;;;;6172422;23;20026;-62
2023/11/12 06:56:18;;;;;;;66.13;18.90;;;;;;;;;;6174094;23;20025;-62
2023/11/12 06:59:11;;;;;;;59.33;16.75;;;;;;;;;;6173897;23;20024;-62
2023/11/12 07:01:58;;;;;;;69.07;17.83;;;;;;;;;;6174062;23;20517;-61
2023/11/12 07:04:53;;;;;;;72.10;17.45;;;;;;;;;;6169325;23;20032;-62
2023/11/12 07:07:40;;;;;;;58.63;16.40;;;;;;;;;;6170079;23;20035;-62
2023/11/12 07:10:34;;;;;;;61.67;17.20;;;;;;;;;;6173104;23;20025;-60
2023/11/12 07:13:35;;;;;;;58.13;18.33;;;;;;;;;;6174287;23;20101;-63
2023/11/12 07:16:35;;;;;;;74.10;16.90;;;;;;;;;;6176423;23;20036;-63
2023/11/12 07:19:28;;;;;;;80.93;19.42;;;;;;;;;;6173223;23;20028;-64
2023/11/12 07:22:15;;;;;;;49.58;16.75;;;;;;;;;;6177175;23;20083;-63
2023/11/12 07:25:09;;;;;;;69.03;18.42;;;;;;;;;;6175887;23;20017;-64
2023/11/12 07:27:56;;;;;;;58.42;17.13;;;;;;;;;;6170454;23;20024;-60
2023/11/12 07:30:50;;;;;;;54.78;17.05;;;;;;;;;;6174014;23;20071;-59
2023/11/12 07:33:38;;;;;;;58.80;17.25;;;;;;;;;;6171333;23;20029;-60
2023/11/12 07:36:31;;;;;;;67.25;17.55;;;;;;;;;;6174546;23;20025;-59
2023/11/12 07:39:20;;;;;;;48.35;15.95;;;;;;;;;;6174482;23;20052;-60
2023/11/12 07:42:12;;;;;;;47.25;15.73;;;;;;;;;;6167133;23;20214;-60
2023/11/12 07:45:00;;;;;;;49.33;15.90;;;;;;;;;;6174477;23;20112;-64
2023/11/12 07:48:07;;;;;;;51.70;16.58;;;;;;;;;;6175447;23;20024;-62
2023/11/12 07:51:01;;;;;;;65.18;17.10;;;;;;;;;;6176621;23;20024;-62
2023/11/12 07:53:48;;;;;;;48.85;16.40;;;;;;;;;;6175057;23;20032;-62
2023/11/12 07:56:41;;;;;;;50.72;16.27;;;;;;;;;;6174661;23;20061;-63
2023/11/12 07:59:29;;;;;;;53.63;16.10;;;;;;;;;;6175371;23;20025;-62
2023/11/12 08:02:22;;;;;;;51.85;17.20;;;;;;;;;;6170621;23;20025;-61
2023/11/12 08:05:17;;;;;;;48.40;15.80;;;;;;;;;;6172745;23;20021;-50
2023/11/12 08:08:04;;;;;;;42.20;15.93;;;;;;;;;;6174747;23;20402;-62
2023/11/12 08:11:01;;;;;;;41.17;15.75;;;;;;;;;;6155162;23;20099;-62
2023/11/12 08:14:02;;;;;;;48.95;16.40;;;;;;;;;;6168863;23;20060;-62
2023/11/12 08:16:57;;;;;;;43.08;16.15;;;;;;;;;;6172729;23;20029;-62
2023/11/12 08:19:52;;;;;;;54.17;17.17;;;;;;;;;;6170467;23;20021;-62
2023/11/12 08:22:46;;;;;;;51.20;16.75;;;;;;;;;;6170876;23;20099;-54
2023/11/12 08:25:39;;;;;;;51.22;17.15;;;;;;;;;;6169616;23;20099;-63
2023/11/12 08:28:29;;;;;;;40.58;16.30;;;;;;;;;;6173264;23;20047;-62
2023/11/12 08:31:24;;;;;;;46.10;16.77;;;;;;;;;;6167695;23;20040;-63
2023/11/12 08:34:21;;;;;;;56.00;16.95;;;;;;;;;;6169260;23;20031;-63
2023/11/12 08:37:05;;;;;;;41.30;16.55;;;;;;;;;;6169772;23;20021;-63
2023/11/12 08:39:58;;;;;;;35.47;14.55;;;;;;;;;;6173017;23;20028;-64
2023/11/12 08:42:46;;;;;;;42.85;15.63;;;;;;;;;;6174311;23;20087;-64
2023/11/12 08:45:41;;;;;;;31.77;14.45;;;;;;;;;;6172257;23;20025;-64
2023/11/12 08:48:08;;;;;;;37.53;14.90;;;;;;;;;;6173539;23;20029;-64
2023/11/12 08:50:35;;;;;;;39.63;16.30;;;;;;;;;;6173432;23;20021;-64
2023/11/12 08:53:29;;;;;;;30.77;14.68;;;;;;;;;;6171859;23;20124;-64
2023/11/12 08:56:17;;;;;;;39.33;14.50;;;;;;;;;;6172231;23;20025;-63
2023/11/12 08:58:50;;;;;;;31.20;13.10;;;;;;;;;;6172973;23;20029;-64
2023/11/12 09:01:38;;;;;;;40.17;14.82;;;;;;;;;;6172760;23;20669;-63
2023/11/12 09:04:31;;;;;;;31.45;13.45;;;;;;;;;;6170742;23;20021;-64
2023/11/12 09:07:20;;;;;;;41.58;14.30;;;;;;;;;;6174662;23;20033;-63
2023/11/12 09:10:12;;;;;;;34.70;14.68;;;;;;;;;;6173283;23;20084;-63
2023/11/12 09:13:06;;;;;;;39.30;14.75;;;;;;;;;;6174195;23;20032;-63
2023/11/12 09:15:59;;;;;;;35.00;15.30;;;;;;;;;;6172136;23;20084;-62
2023/11/12 09:18:47;;;;;;;33.92;14.98;;;;;;;;;;6172922;23;20023;-63
2023/11/12 09:21:42;;;;;;;33.85;14.90;;;;;;;;;;6174007;23;20544;-64
2023/11/12 09:24:29;;;;;;;40.00;14.73;;;;;;;;;;6172166;23;20033;-64
2023/11/12 09:27:37;;;;;;;37.20;15.30;;;;;;;;;;6171932;23;20447;-64
2023/11/12 09:30:24;;;;;;;37.10;13.93;;;;;;;;;;6172978;23;20025;-64
2023/11/12 09:33:26;;;;;;;28.13;13.15;;;;;;;;;;6174665;23;20021;-63
2023/11/12 09:36:13;;;;;;;28.63;12.98;;;;;;;;;;6173374;23;20028;-53
2023/11/12 09:39:06;;;;;;;25.25;12.82;;;;;;;;;;6174054;23;20118;-51
2023/11/12 09:41:55;;;;;;;27.67;13.13;;;;;;;;;;6170691;23;20053;-50
2023/11/12 09:44:48;;;;;;;26.15;12.70;;;;;;;;;;6173021;23;20059;-55
2023/11/12 09:47:55;;;;;;;23.42;12.45;;;;;;;;;;6174027;23;20049;-52
2023/11/12 09:50:23;;;;;;;18.98;11.60;;;;;;;;;;6174345;23;20108;-54
2023/11/12 09:53:03;;;;;;;23.90;12.23;;;;;;;;;;6174019;23;20031;-53
2023/11/12 09:55:30;;;;;;;25.77;12.57;;;;;;;;;;6169731;23;20021;-62
2023/11/12 09:58:04;;;;;;;22.00;11.25;;;;;;;;;;6174095;23;20108;-61
2023/11/12 10:00:35;;;;;;;19.67;12.05;;;;;;;;;;6171473;23;20021;-61
2023/11/12 10:03:29;;;;;;;18.80;11.23;;;;;;;;;;6172684;23;20021;-62
2023/11/12 10:06:19;;;;;;;18.70;11.48;;;;;;;;;;6166976;23;20021;-62
2023/11/12 10:09:10;;;;;;;21.08;11.30;;;;;;;;;;6170276;23;20062;-62
2023/11/12 10:12:04;;;;;;;20.48;11.27;;;;;;;;;;6165826;23;20025;-50
2023/11/12 10:14:52;;;;;;;17.67;11.35;;;;;;;;;;6173091;23;20021;-59
2023/11/12 10:17:45;;;;;;;17.77;10.95;;;;;;;;;;6172198;23;20601;-58
2023/11/12 10:20:40;;;;;;;18.60;10.82;;;;;;;;;;6172253;23;20064;-59
2023/11/12 10:23:27;;;;;;;17.87;9.93;;;;;;;;;;6173025;23;20024;-58
2023/11/12 10:26:21;;;;;;;20.40;10.18;;;;;;;;;;6173270;23;20021;-60
2023/11/12 10:29:22;;;;;;;19.83;10.02;;;;;;;;;;6171448;23;20021;-59
2023/11/12 10:32:24;;;;;;;16.08;10.00;;;;;;;;;;6172528;23;20351;-61
2023/11/12 10:35:26;;;;;;;15.00;9.75;;;;;;;;;;6172367;23;20025;-59
2023/11/12 10:38:20;;;;;;;18.67;9.52;;;;;;;;;;6169963;23;20021;-59
2023/11/12 10:41:07;;;;;;;15.52;8.93;;;;;;;;;;6172143;23;20025;-59
2023/11/12 10:44:01;;;;;;;19.63;8.90;;;;;;;;;;6171012;23;20048;-59
2023/11/12 10:46:56;;;;;;;18.40;10.38;;;;;;;;;;6173889;23;20033;-59
2023/11/12 10:49:43;;;;;;;14.82;9.25;;;;;;;;;;6172090;23;20414;-63
2023/11/12 10:52:37;;;;;;;16.00;9.68;;;;;;;;;;6171452;23;20044;-63
2023/11/12 10:55:31;;;;;;;16.52;9.60;;;;;;;;;;6172547;23;20025;-63
2023/11/12 10:58:18;;;;;;;16.75;10.07;;;;;;;;;;6173538;23;20031;-63
2023/11/12 11:01:14;;;;;;;17.15;9.15;;;;;;;;;;6173109;23;20129;-63
2023/11/12 11:03:59;;;;;;;15.37;9.57;;;;;;;;;;6172470;23;20017;-64
2023/11/12 11:06:54;;;;;;;15.73;10.02;;;;;;;;;;6166356;23;20248;-64
2023/11/12 11:09:47;;;;;;;14.38;9.45;;;;;;;;;;6172300;23;20478;-50
2023/11/12 11:12:42;;;;;;;15.95;9.68;;;;;;;;;;6171696;23;20083;-53
2023/11/12 11:15:42;;;;;;;16.65;9.18;;;;;;;;;;6144334;23;20471;-50
2023/11/12 11:18:36;;;;;;;18.08;8.73;;;;;;;;;;6142396;23;20488;-54
2023/11/12 11:21:08;;;;;;;;;;;;;;;;;;6142161;23;20494;-56
2023/11/12 11:23:56;;;;;;;16.65;9.20;;;;;;;;;;6143126;23;19923;-55
2023/11/12 11:26:50;;;;;;;14.52;8.40;;;;;;;;;;6145462;23;20026;-63
2023/11/12 11:29:58;;;;;;;13.23;8.02;;;;;;;;;;6142003;23;20031;-64
2023/11/12 11:32:54;;;;;;;14.07;8.82;;;;;;;;;;6144025;23;20040;-64
2023/11/12 11:35:41;;;;;;;16.25;8.90;;;;;;;;;;6143542;23;20088;-64
2023/11/12 11:38:36;;;;;;;14.77;8.95;;;;;;;;;;6142321;23;20022;-64
2023/11/12 11:41:24;;;;;;;11.77;6.82;;;;;;;;;;6144141;23;20077;-64
2023/11/12 11:44:42;;;;;;;9.85;6.93;;;;;;;;;;6144859;23;20049;-62
2023/11/12 11:47:29;;;;;;;10.32;6.88;;;;;;;;;;6143742;23;20048;-60
2023/11/12 11:50:32;;;;;;;12.30;6.72;;;;;;;;;;6144453;23;20045;-59
2023/11/12 11:53:26;;;;;;;10.45;6.05;;;;;;;;;;6143253;23;20049;-59
2023/11/12 11:56:21;;;;;;;10.07;5.55;;;;;;;;;;6143841;23;20549;-60
2023/11/12 11:59:08;;;;;;;7.75;5.13;;;;;;;;;;6142746;23;20026;-59
2023/11/12 12:02:02;;;;;;;9.05;5.20;;;;;;;;;;6143112;23;20025;-54
2023/11/12 12:04:49;;;;;;;7.50;4.88;;;;;;;;;;6142913;23;20029;-55
2023/11/12 12:07:45;;;;;;;9.45;4.75;;;;;;;;;;6142717;23;20025;-53
2023/11/12 12:10:33;;;;;;;6.15;4.15;;;;;;;;;;6144675;23;20025;-52
2023/11/12 12:13:33;;;;;;;5.75;3.63;;;;;;;;;;6152444;23;20029;-53
2023/11/12 12:16:26;;;;;;;5.93;4.25;;;;;;;;;;6174008;23;20025;-51
2023/11/12 12:19:25;;;;;;;4.93;3.67;;;;;;;;;;6175014;23;20032;-52
2023/11/12 12:22:11;;;;;;;4.55;3.30;;;;;;;;;;6174910;23;20024;-63
2023/11/12 12:25:05;;;;;;;4.50;3.58;;;;;;;;;;6175072;23;20029;-64
2023/11/12 12:27:52;;;;;;;4.78;3.40;;;;;;;;;;6174273;23;20021;-63
2023/11/12 12:30:51;;;;;;;4.47;3.50;;;;;;;;;;6173992;23;20119;-64
2023/11/12 12:33:38;;;;;;;4.90;3.67;;;;;;;;;;6172712;23;20072;-63
2023/11/12 12:36:34;;;;;;;4.63;3.58;;;;;;;;;;6176134;23;20035;-63
2023/11/12 12:39:23;;;;;;;5.18;3.70;;;;;;;;;;6175429;23;20021;-63
2023/11/12 12:42:18;;;;;;;6.78;3.90;;;;;;;;;;6174340;23;20065;-60
2023/11/12 12:45:12;;;;;;;6.85;3.90;;;;;;;;;;6175594;23;20107;-60
2023/11/12 12:48:14;;;;;;;7.07;3.95;;;;;;;;;;6174602;23;20063;-60
2023/11/12 12:51:03;;;;;;;7.88;3.90;;;;;;;;;;6172103;23;20080;-60
2023/11/12 12:53:55;;;;;;;11.40;3.92;;;;;;;;;;6174308;23;20032;-61
2023/11/12 12:56:43;;;;;;;6.30;3.80;;;;;;;;;;6172872;23;20075;-55
2023/11/12 12:59:37;;;;;;;5.70;3.80;;;;;;;;;;6171865;23;20017;-59
2023/11/12 13:02:23;;;;;;;8.88;4.50;;;;;;;;;;6173113;23;20514;-62
2023/11/12 13:05:21;;;;;;;7.45;4.20;;;;;;;;;;6171321;23;20463;-62
2023/11/12 13:08:14;;;;;;;7.10;4.22;;;;;;;;;;6172526;23;20087;-62
2023/11/12 13:11:10;;;;;;;5.63;3.97;;;;;;;;;;6168782;23;20328;-62
2023/11/12 13:14:02;;;;;;;6.70;4.22;;;;;;;;;;6171815;23;20410;-62
2023/11/12 13:17:04;;;;;;;10.48;4.10;;;;;;;;;;6171857;23;20032;-61
2023/11/12 13:19:50;;;;;;;6.40;4.40;;;;;;;;;;6170934;23;20028;-62
2023/11/12 13:22:45;;;;;;;7.40;4.22;;;;;;;;;;6173776;23;20029;-61
2023/11/12 13:25:32;;;;;;;8.43;4.40;;;;;;;;;;6173277;23;20021;-61
2023/11/12 13:28:25;;;;;;;6.35;4.10;;;;;;;;;;6171996;23;20088;-60
2023/11/12 13:31:14;;;;;;;6.93;3.53;;;;;;;;;;6175593;23;20080;-61
2023/11/12 13:34:08;;;;;;;8.20;4.25;;;;;;;;;;6174401;23;20072;-62
2023/11/12 13:36:55;;;;;;;7.35;4.07;;;;;;;;;;6164811;23;20139;-55
2023/11/12 13:39:50;;;;;;;6.20;4.30;;;;;;;;;;6172906;23;20025;-55
2023/11/12 13:42:36;;;;;;;6.22;4.43;;;;;;;;;;6172228;23;20079;-51
2023/11/12 13:45:30;;;;;;;8.07;4.78;;;;;;;;;;6173848;23;20120;-53
2023/11/12 13:48:24;;;;;;;10.38;5.68;;;;;;;;;;6172590;23;20227;-52
2023/11/12 13:51:24;;;;;;;11.25;5.70;;;;;;;;;;6172941;23;20025;-53
2023/11/12 13:54:10;;;;;;;10.95;5.70;;;;;;;;;;6171767;23;20025;-59
2023/11/12 13:57:04;;;;;;;15.25;5.88;;;;;;;;;;6169801;23;20634;-64
2023/11/12 13:59:51;;;;;;;22.02;6.18;;;;;;;;;;6166949;23;20395;-64
2023/11/12 14:02:25;;;;;;;16.67;6.47;;;;;;;;;;6172548;23;20029;-64
2023/11/12 14:05:13;;;;;;;8.60;5.55;;;;;;;;;;6171994;23;20056;-64
2023/11/12 14:08:07;;;;;;;13.68;5.85;;;;;;;;;;6171096;23;20025;-64
2023/11/12 14:10:55;;;;;;;9.85;5.55;;;;;;;;;;6170542;23;20080;-60
2023/11/12 14:13:55;;;;;;;12.75;5.30;;;;;;;;;;6171301;23;20095;-62
2023/11/12 14:16:47;;;;;;;18.95;5.38;;;;;;;;;;6170471;23;20029;-62
2023/11/12 14:19:42;;;;;;;13.98;6.35;;;;;;;;;;6173453;23;20359;-62
2023/11/12 14:22:28;;;;;;;12.45;6.18;;;;;;;;;;6168817;23;20391;-62
2023/11/12 14:25:23;;;;;;;20.25;7.25;;;;;;;;;;6169489;23;20021;-62
2023/11/12 14:28:10;;;;;;;20.00;7.10;;;;;;;;;;6174029;23;20028;-62
2023/11/12 14:31:07;;;;;;;39.72;8.55;;;;;;;;;;6171284;23;20029;-54
2023/11/12 14:33:51;;;;;;;22.05;7.90;;;;;;;;;;6171947;23;20205;-62
2023/11/12 14:36:51;;;;;;;37.40;8.00;;;;;;;;;;6171978;23;20033;-62
2023/11/12 14:39:39;;;;;;;35.28;9.40;;;;;;;;;;6164359;23;20029;-62
2023/11/12 14:42:40;;;;;;;23.98;8.43;;;;;;;;;;6172656;23;20021;-62
2023/11/12 14:45:29;;;;;;;21.02;8.70;;;;;;;;;;6171492;23;20115;-62
2023/11/12 14:48:21;;;;;;;21.63;8.00;;;;;;;;;;6173639;23;20039;-58
2023/11/12 14:50:48;;;;;;;21.48;8.07;;;;;;;;;;6171630;23;20029;-52
2023/11/12 14:53:43;;;;;;;16.45;7.72;;;;;;;;;;6171327;23;20064;-54
2023/11/12 14:56:36;;;;;;;15.60;6.78;;;;;;;;;;6169525;23;20031;-54
2023/11/12 14:59:28;;;;;;;14.35;6.78;;;;;;;;;;6173386;23;20028;-51
2023/11/12 15:02:15;;;;;;;12.20;5.88;;;;;;;;;;6174147;23;20021;-52
2023/11/12 15:05:09;;;;;;;14.57;6.32;;;;;;;;;;6172262;23;20103;-55
2023/11/12 15:08:03;;;;;;;19.05;7.55;;;;;;;;;;6174088;23;20021;-64
2023/11/12 15:10:57;;;;;;;17.50;6.85;;;;;;;;;;6171820;23;20467;-63
2023/11/12 15:13:52;;;;;;;15.23;6.70;;;;;;;;;;6174427;23;20017;-63
2023/11/12 15:16:52;;;;;;;13.95;7.00;;;;;;;;;;6169574;23;20021;-63
2023/11/12 15:19:41;;;;;;;18.77;7.20;;;;;;;;;;6173087;23;20411;-63
2023/11/12 15:22:34;;;;;;;12.52;6.68;;;;;;;;;;6174304;23;20017;-64
2023/11/12 15:25:21;;;;;;;17.98;6.70;;;;;;;;;;6173079;23;20079;-63
2023/11/12 15:28:14;;;;;;;16.35;6.57;;;;;;;;;;6172279;23;20517;-59
2023/11/12 15:31:02;;;;;;;12.32;6.63;;;;;;;;;;6173020;23;20021;-58
2023/11/12 15:33:56;;;;;;;13.88;7.00;;;;;;;;;;6173551;23;20025;-59
2023/11/12 15:36:49;;;;;;;16.23;6.68;;;;;;;;;;6173168;23;20040;-59
2023/11/12 15:39:44;;;;;;;11.15;5.75;;;;;;;;;;6174933;23;20550;-58
2023/11/12 15:42:37;;;;;;;12.55;6.47;;;;;;;;;;6172580;23;20501;-63
2023/11/12 15:45:25;;;;;;;20.42;7.28;;;;;;;;;;6174122;23;20056;-53
2023/11/12 15:48:18;;;;;;;14.50;7.35;;;;;;;;;;6176598;23;20040;-52
2023/11/12 15:51:06;;;;;;;15.68;7.25;;;;;;;;;;6169596;23;20060;-52
2023/11/12 15:54:00;;;;;;;14.85;7.10;;;;;;;;;;6176933;23;20032;-54
2023/11/12 15:56:47;;;;;;;17.23;8.18;;;;;;;;;;6172822;23;20375;-53
2023/11/12 15:59:21;;;;;;;18.80;9.32;;;;;;;;;;6177106;23;20075;-59
2023/11/12 16:02:08;;;;;;;19.20;9.77;;;;;;;;;;6170071;23;20017;-60
2023/11/12 16:05:03;;;;;;;19.75;9.85;;;;;;;;;;6176803;23;20027;-52
2023/11/12 16:07:50;;;;;;;19.43;9.83;;;;;;;;;;6174831;23;20793;-54
2023/11/12 16:10:43;;;;;;;20.95;9.48;;;;;;;;;;6174406;23;20236;-50
2023/11/12 16:13:31;;;;;;;22.77;9.73;;;;;;;;;;6170080;23;20025;-51
2023/11/12 16:16:31;;;;;;;24.27;9.52;;;;;;;;;;6173803;23;20032;-52
2023/11/12 16:19:18;;;;;;;25.38;10.07;;;;;;;;;;6166630;23;20032;-54
2023/11/12 16:22:13;;;;;;;23.27;11.30;;;;;;;;;;6171715;23;20088;-59
2023/11/12 16:25:07;;;;;;;21.80;10.63;;;;;;;;;;6172657;23;20088;-59
2023/11/12 16:27:59;;;;;;;26.27;11.95;;;;;;;;;;6171470;23;20050;-58
2023/11/12 16:30:47;;;;;;;22.33;11.55;;;;;;;;;;6173662;23;20076;-60
2023/11/12 16:33:40;;;;;;;27.02;11.48;;;;;;;;;;6174504;23;20021;-59
2023/11/12 16:36:27;;;;;;;21.42;11.40;;;;;;;;;;6174014;23;20459;-59
2023/11/12 16:39:21;;;;;;;23.92;10.80;;;;;;;;;;6175191;23;20040;-63
2023/11/12 16:42:08;;;;;;;24.02;10.70;;;;;;;;;;6171469;23;20021;-51